sensor_id;sensor_type;location;lat;lon;timestamp;pressure;altitude;pressure_sealevel;temperature;humidity
21760;BME280;11041;50.854;20.580;2022-11-15T00:01:13;99149.97;;;5.44;94.30
21760;BME280;11041;50.854;20.580;2022-11-15T00:03:41;99142.34;;;5.51;94.26
21760;BME280;11041;50.854;20.580;2022-11-15T00:06:08;99130.59;;;5.45;94.48
21760;BME280;11041;50.854;20.580;2022-11-15T00:08:47;99146.13;;;5.55;93.34
21760;BME280;11041;50.854;20.580;2022-11-15T00:11:36;99142.59;;;5.49;93.61
21760;BME280;11041;50.854;20.580;2022-11-15T00:14:06;99134.16;;;5.51;93.47
21760;BME280;11041;50.854;20.580;2022-11-15T00:16:36;99125.44;;;5.44;93.30
21760;BME280;11041;50.854;20.580;2022-11-15T00:19:04;99127.06;;;5.50;93.61
21760;BME280;11041;50.854;20.580;2022-11-15T00:21:31;99116.72;;;5.47;93.78
21760;BME280;11041;50.854;20.580;2022-11-15T00:23:59;99128.72;;;5.51;93.16
21760;BME280;11041;50.854;20.580;2022-11-15T00:26:25;99121.59;;;5.50;93.14
21760;BME280;11041;50.854;20.580;2022-11-15T00:28:54;99120.50;;;5.41;93.37
21760;BME280;11041;50.854;20.580;2022-11-15T00:31:21;99119.97;;;5.39;93.86
21760;BME280;11041;50.854;20.580;2022-11-15T00:33:47;99126.25;;;5.34;93.08
21760;BME280;11041;50.854;20.580;2022-11-15T00:36:14;99111.53;;;5.30;93.31
21760;BME280;11041;50.854;20.580;2022-11-15T00:38:41;99122.44;;;5.30;93.67
21760;BME280;11041;50.854;20.580;2022-11-15T00:41:08;99111.53;;;5.25;93.75
21760;BME280;11041;50.854;20.580;2022-11-15T00:43:35;99110.16;;;5.22;94.07
21760;BME280;11041;50.854;20.580;2022-11-15T00:46:01;99108.25;;;5.23;94.25
21760;BME280;11041;50.854;20.580;2022-11-15T00:48:29;99102.25;;;5.26;94.09
21760;BME280;11041;50.854;20.580;2022-11-15T00:50:55;99101.72;;;5.24;94.11
21760;BME280;11041;50.854;20.580;2022-11-15T00:53:22;99096.25;;;5.19;94.38
21760;BME280;11041;50.854;20.580;2022-11-15T00:55:48;99097.06;;;5.19;94.76
21760;BME280;11041;50.854;20.580;2022-11-15T00:58:15;99098.72;;;5.25;94.42
21760;BME280;11041;50.854;20.580;2022-11-15T01:00:41;99097.91;;;5.25;94.44
21760;BME280;11041;50.854;20.580;2022-11-15T01:03:07;99098.47;;;5.27;94.46
21760;BME280;11041;50.854;20.580;2022-11-15T01:05:37;99085.91;;;5.26;94.65
21760;BME280;11041;50.854;20.580;2022-11-15T01:08:04;99079.09;;;5.23;94.52
21760;BME280;11041;50.854;20.580;2022-11-15T01:10:30;99082.09;;;5.22;94.95
21760;BME280;11041;50.854;20.580;2022-11-15T01:12:57;99087.28;;;5.28;95.05
21760;BME280;11041;50.854;20.580;2022-11-15T01:15:23;99081.28;;;5.26;94.63
21760;BME280;11041;50.854;20.580;2022-11-15T01:17:50;99064.41;;;5.24;95.01
21760;BME280;11041;50.854;20.580;2022-11-15T01:20:16;99072.03;;;5.27;94.36
21760;BME280;11041;50.854;20.580;2022-11-15T01:22:43;99078.03;;;5.29;94.09
21760;BME280;11041;50.854;20.580;2022-11-15T01:25:09;99056.50;;;5.18;93.99
21760;BME280;11041;50.854;20.580;2022-11-15T01:27:35;99061.94;;;5.18;94.94
21760;BME280;11041;50.854;20.580;2022-11-15T01:30:02;99065.19;;;5.15;95.04
21760;BME280;11041;50.854;20.580;2022-11-15T01:32:29;99050.50;;;5.10;94.94
21760;BME280;11041;50.854;20.580;2022-11-15T01:34:56;99058.66;;;5.16;95.31
21760;BME280;11041;50.854;20.580;2022-11-15T01:37:22;99051.88;;;5.13;95.07
21760;BME280;11041;50.854;20.580;2022-11-15T01:39:49;99056.75;;;5.21;94.97
21760;BME280;11041;50.854;20.580;2022-11-15T01:42:16;99055.94;;;5.21;95.50
21760;BME280;11041;50.854;20.580;2022-11-15T01:44:48;99044.78;;;5.22;95.21
21760;BME280;11041;50.854;20.580;2022-11-15T01:47:25;99057.31;;;5.23;95.17
21760;BME280;11041;50.854;20.580;2022-11-15T01:50:08;99042.06;;;5.17;94.95
21760;BME280;11041;50.854;20.580;2022-11-15T01:52:38;99057.31;;;5.23;95.36
21760;BME280;11041;50.854;20.580;2022-11-15T01:55:26;99048.31;;;5.23;95.20
21760;BME280;11041;50.854;20.580;2022-11-15T01:58:00;99048.88;;;5.20;95.11
21760;BME280;11041;50.854;20.580;2022-11-15T02:00:30;99036.06;;;5.20;94.70
21760;BME280;11041;50.854;20.580;2022-11-15T02:02:57;99032.78;;;5.18;95.45
21760;BME280;11041;50.854;20.580;2022-11-15T02:05:24;99024.31;;;5.15;95.15
21760;BME280;11041;50.854;20.580;2022-11-15T02:07:51;99024.06;;;5.16;94.73
21760;BME280;11041;50.854;20.580;2022-11-15T02:10:22;99022.16;;;5.17;94.95
21760;BME280;11041;50.854;20.580;2022-11-15T02:12:52;99023.50;;;5.19;95.08
21760;BME280;11041;50.854;20.580;2022-11-15T02:15:19;99008.84;;;5.10;94.72
21760;BME280;11041;50.854;20.580;2022-11-15T02:17:48;99019.16;;;5.18;95.06
21760;BME280;11041;50.854;20.580;2022-11-15T02:21:11;99027.91;;;5.15;94.42
21760;BME280;11041;50.854;20.580;2022-11-15T02:27:24;99010.16;;;5.02;94.45
21760;BME280;11041;50.854;20.580;2022-11-15T02:36:16;99009.63;;;5.00;95.10
21760;BME280;11041;50.854;20.580;2022-11-15T02:42:00;98998.72;;;4.95;94.75
21760;BME280;11041;50.854;20.580;2022-11-15T02:44:44;99008.25;;;4.98;94.72
21760;BME280;11041;50.854;20.580;2022-11-15T02:47:16;98997.91;;;5.00;94.60
21760;BME280;11041;50.854;20.580;2022-11-15T02:49:58;99001.19;;;4.97;95.25
21760;BME280;11041;50.854;20.580;2022-11-15T02:52:25;98997.41;;;5.03;94.82
21760;BME280;11041;50.854;20.580;2022-11-15T02:55:00;98991.13;;;4.97;94.74
21760;BME280;11041;50.854;20.580;2022-11-15T03:00:47;98999.81;;;5.04;94.65
21760;BME280;11041;50.854;20.580;2022-11-15T03:07:12;99000.63;;;5.05;95.23
21760;BME280;11041;50.854;20.580;2022-11-15T03:10:39;98988.38;;;4.97;94.50
21760;BME280;11041;50.854;20.580;2022-11-15T03:12:49;98981.03;;;4.98;94.46
21760;BME280;11041;50.854;20.580;2022-11-15T03:15:19;98990.84;;;5.04;94.53
21760;BME280;11041;50.854;20.580;2022-11-15T03:18:04;98985.41;;;4.99;94.55
21760;BME280;11041;50.854;20.580;2022-11-15T03:20:36;98984.03;;;4.91;94.40
21760;BME280;11041;50.854;20.580;2022-11-15T03:23:10;98981.59;;;4.84;94.38
21760;BME280;11041;50.854;20.580;2022-11-15T03:25:44;98977.50;;;4.87;94.42
21760;BME280;11041;50.854;20.580;2022-11-15T03:28:20;98969.34;;;4.82;95.14
21760;BME280;11041;50.854;20.580;2022-11-15T03:30:52;98968.78;;;4.85;95.26
21760;BME280;11041;50.854;20.580;2022-11-15T03:33:22;98958.72;;;4.80;95.29
21760;BME280;11041;50.854;20.580;2022-11-15T03:35:50;98966.88;;;4.85;95.02
21760;BME280;11041;50.854;20.580;2022-11-15T03:38:26;98961.41;;;4.90;95.14
21760;BME280;11041;50.854;20.580;2022-11-15T03:41:04;98952.44;;;4.90;95.05
21760;BME280;11041;50.854;20.580;2022-11-15T03:49:37;98948.91;;;4.89;94.30
21760;BME280;11041;50.854;20.580;2022-11-15T03:52:07;98930.94;;;4.78;94.83
21760;BME280;11041;50.854;20.580;2022-11-15T03:54:36;98929.31;;;4.77;94.50
21760;BME280;11041;50.854;20.580;2022-11-15T03:57:02;98933.09;;;4.76;94.58
21760;BME280;11041;50.854;20.580;2022-11-15T03:59:29;98919.50;;;4.66;94.11
21760;BME280;11041;50.854;20.580;2022-11-15T04:01:55;98923.03;;;4.66;94.72
21760;BME280;11041;50.854;20.580;2022-11-15T04:04:22;98920.88;;;4.63;94.65
21760;BME280;11041;50.854;20.580;2022-11-15T04:06:48;98915.72;;;4.62;94.95
21760;BME280;11041;50.854;20.580;2022-11-15T04:09:14;98914.06;;;4.61;94.92
21760;BME280;11041;50.854;20.580;2022-11-15T04:11:41;98908.06;;;4.59;94.65
21760;BME280;11041;50.854;20.580;2022-11-15T04:14:07;98907.00;;;4.60;94.87
21760;BME280;11041;50.854;20.580;2022-11-15T04:16:34;98906.16;;;4.59;94.99
21760;BME280;11041;50.854;20.580;2022-11-15T04:19:00;98904.00;;;4.61;95.53
21760;BME280;11041;50.854;20.580;2022-11-15T04:21:45;98901.00;;;4.63;95.75
21760;BME280;11041;50.854;20.580;2022-11-15T04:24:30;98905.09;;;4.65;94.91
21760;BME280;11041;50.854;20.580;2022-11-15T04:26:56;98905.38;;;4.69;94.48
21760;BME280;11041;50.854;20.580;2022-11-15T04:29:23;98905.88;;;4.71;94.93
21760;BME280;11041;50.854;20.580;2022-11-15T04:32:04;98910.25;;;4.72;95.12
21760;BME280;11041;50.854;20.580;2022-11-15T04:34:32;98897.47;;;4.67;94.89
21760;BME280;11041;50.854;20.580;2022-11-15T04:36:59;98904.00;;;4.72;94.65
21760;BME280;11041;50.854;20.580;2022-11-15T04:39:44;98900.19;;;4.67;94.58
21760;BME280;11041;50.854;20.580;2022-11-15T04:42:11;98900.47;;;4.61;94.62
21760;BME280;11041;50.854;20.580;2022-11-15T04:44:37;98888.22;;;4.58;94.54
21760;BME280;11041;50.854;20.580;2022-11-15T04:47:04;98904.84;;;4.62;95.23
21760;BME280;11041;50.854;20.580;2022-11-15T04:49:30;98890.94;;;4.58;94.82
21760;BME280;11041;50.854;20.580;2022-11-15T04:51:57;98891.47;;;4.60;94.69
21760;BME280;11041;50.854;20.580;2022-11-15T04:54:24;98892.03;;;4.57;94.90
21760;BME280;11041;50.854;20.580;2022-11-15T04:56:51;98879.78;;;4.55;94.56
21760;BME280;11041;50.854;20.580;2022-11-15T04:59:17;98888.50;;;4.62;94.65
21760;BME280;11041;50.854;20.580;2022-11-15T05:01:44;98883.88;;;4.62;94.31
21760;BME280;11041;50.854;20.580;2022-11-15T05:04:10;98883.03;;;4.57;94.85
21760;BME280;11041;50.854;20.580;2022-11-15T05:06:51;98890.69;;;4.60;94.84
21760;BME280;11041;50.854;20.580;2022-11-15T05:09:19;98872.44;;;4.55;94.72
21760;BME280;11041;50.854;20.580;2022-11-15T05:11:46;98870.53;;;4.56;94.93
21760;BME280;11041;50.854;20.580;2022-11-15T05:14:14;98874.06;;;4.61;94.51
21760;BME280;11041;50.854;20.580;2022-11-15T05:16:42;98872.97;;;4.52;94.68
21760;BME280;11041;50.854;20.580;2022-11-15T05:19:09;98871.59;;;4.49;94.23
21760;BME280;11041;50.854;20.580;2022-11-15T05:21:36;98866.16;;;4.49;94.28
21760;BME280;11041;50.854;20.580;2022-11-15T05:24:03;98868.63;;;4.46;94.39
21760;BME280;11041;50.854;20.580;2022-11-15T05:26:30;98861.56;;;4.45;94.31
21760;BME280;11041;50.854;20.580;2022-11-15T05:28:59;98852.31;;;4.36;94.51
21760;BME280;11041;50.854;20.580;2022-11-15T05:31:26;98864.81;;;4.37;94.53
21760;BME280;11041;50.854;20.580;2022-11-15T05:33:55;98860.19;;;4.37;94.68
21760;BME280;11041;50.854;20.580;2022-11-15T05:38:59;98853.38;;;4.40;94.86
21760;BME280;11041;50.854;20.580;2022-11-15T05:41:39;98852.00;;;4.42;94.63
21760;BME280;11041;50.854;20.580;2022-11-15T05:44:11;98852.03;;;4.37;95.21
21760;BME280;11041;50.854;20.580;2022-11-15T05:46:42;98844.69;;;4.38;94.99
21760;BME280;11041;50.854;20.580;2022-11-15T05:49:19;98845.75;;;4.42;94.68
21760;BME280;11041;50.854;20.580;2022-11-15T05:51:49;98852.31;;;4.41;94.30
21760;BME280;11041;50.854;20.580;2022-11-15T05:54:17;98837.06;;;4.30;94.52
21760;BME280;11041;50.854;20.580;2022-11-15T05:56:44;98840.88;;;4.29;94.57
21760;BME280;11041;50.854;20.580;2022-11-15T05:59:11;98842.75;;;4.28;94.35
21760;BME280;11041;50.854;20.580;2022-11-15T06:01:39;98852.56;;;4.29;94.26
21760;BME280;11041;50.854;20.580;2022-11-15T06:04:06;98846.84;;;4.20;94.16
21760;BME280;11041;50.854;20.580;2022-11-15T06:06:33;98853.09;;;4.21;94.51
21760;BME280;11041;50.854;20.580;2022-11-15T06:08:59;98833.25;;;4.15;94.60
21760;BME280;11041;50.854;20.580;2022-11-15T06:11:26;98850.66;;;4.14;94.39
21760;BME280;11041;50.854;20.580;2022-11-15T06:13:52;98853.63;;;4.18;94.34
21760;BME280;11041;50.854;20.580;2022-11-15T06:16:19;98852.84;;;4.12;93.73
21760;BME280;11041;50.854;20.580;2022-11-15T06:18:46;98859.06;;;4.08;93.27
21760;BME280;11041;50.854;20.580;2022-11-15T06:21:12;98851.97;;;4.01;93.65
21760;BME280;11041;50.854;20.580;2022-11-15T06:23:39;98854.19;;;3.99;94.08
21760;BME280;11041;50.854;20.580;2022-11-15T06:26:05;98842.22;;;3.95;94.29
21760;BME280;11041;50.854;20.580;2022-11-15T06:28:33;98842.22;;;3.95;94.69
21760;BME280;11041;50.854;20.580;2022-11-15T06:31:05;98844.94;;;3.95;94.61
21760;BME280;11041;50.854;20.580;2022-11-15T06:33:32;98841.91;;;3.92;95.23
21760;BME280;11041;50.854;20.580;2022-11-15T06:36:10;98847.09;;;3.98;94.39
21760;BME280;11041;50.854;20.580;2022-11-15T06:38:39;98847.09;;;3.98;95.49
21760;BME280;11041;50.854;20.580;2022-11-15T06:41:09;98844.94;;;4.00;94.81
21760;BME280;11041;50.854;20.580;2022-11-15T06:43:37;98838.69;;;4.00;95.08
21760;BME280;11041;50.854;20.580;2022-11-15T06:46:06;98843.31;;;4.04;94.73
21760;BME280;11041;50.854;20.580;2022-11-15T06:48:34;98843.56;;;4.08;94.87
21760;BME280;11041;50.854;20.580;2022-11-15T06:51:03;98843.31;;;4.10;95.11
21760;BME280;11041;50.854;20.580;2022-11-15T06:53:31;98852.03;;;4.12;95.44
21760;BME280;11041;50.854;20.580;2022-11-15T06:56:06;98846.59;;;4.12;95.23
21760;BME280;11041;50.854;20.580;2022-11-15T06:58:33;98841.16;;;4.12;94.99
21760;BME280;11041;50.854;20.580;2022-11-15T07:01:06;98847.94;;;4.19;95.13
21760;BME280;11041;50.854;20.580;2022-11-15T07:03:39;98842.22;;;4.21;95.05
21760;BME280;11041;50.854;20.580;2022-11-15T07:06:06;98849.56;;;4.25;94.47
21760;BME280;11041;50.854;20.580;2022-11-15T07:08:34;98844.97;;;4.26;95.26
21760;BME280;11041;50.854;20.580;2022-11-15T07:11:07;98852.56;;;4.24;95.06
21760;BME280;11041;50.854;20.580;2022-11-15T07:13:35;98844.97;;;4.26;94.58
21760;BME280;11041;50.854;20.580;2022-11-15T07:16:06;98848.19;;;4.28;94.79
21760;BME280;11041;50.854;20.580;2022-11-15T07:18:39;98853.66;;;4.33;94.47
21760;BME280;11041;50.854;20.580;2022-11-15T07:21:09;98848.75;;;4.35;94.49
21760;BME280;11041;50.854;20.580;2022-11-15T07:23:38;98852.56;;;4.39;95.22
21760;BME280;11041;50.854;20.580;2022-11-15T07:26:06;98845.50;;;4.38;95.08
21760;BME280;11041;50.854;20.580;2022-11-15T07:28:33;98847.13;;;4.44;94.50
21760;BME280;11041;50.854;20.580;2022-11-15T07:31:05;98829.19;;;4.43;94.86
21760;BME280;11041;50.854;20.580;2022-11-15T07:33:32;98830.78;;;4.44;94.43
21760;BME280;11041;50.854;20.580;2022-11-15T07:36:05;98840.59;;;4.45;94.30
21760;BME280;11041;50.854;20.580;2022-11-15T07:38:34;98838.69;;;4.51;94.21
21760;BME280;11041;50.854;20.580;2022-11-15T07:41:04;98841.16;;;4.53;94.76
21760;BME280;11041;50.854;20.580;2022-11-15T07:43:31;98840.88;;;4.49;94.11
21760;BME280;11041;50.854;20.580;2022-11-15T07:46:06;98853.38;;;4.55;94.23
21760;BME280;11041;50.854;20.580;2022-11-15T07:48:37;98846.84;;;4.56;94.71
21760;BME280;11041;50.854;20.580;2022-11-15T07:51:03;98834.34;;;4.50;94.23
21760;BME280;11041;50.854;20.580;2022-11-15T07:53:30;98830.81;;;4.55;94.28
21760;BME280;11041;50.854;20.580;2022-11-15T07:55:56;98827.53;;;4.58;94.32
21760;BME280;11041;50.854;20.580;2022-11-15T07:58:23;98830.50;;;4.56;93.88
21760;BME280;11041;50.854;20.580;2022-11-15T08:00:49;98823.16;;;4.57;93.85
21760;BME280;11041;50.854;20.580;2022-11-15T08:03:17;98831.88;;;4.59;93.60
21760;BME280;11041;50.854;20.580;2022-11-15T08:05:51;98826.16;;;4.60;93.46
21760;BME280;11041;50.854;20.580;2022-11-15T08:08:18;98832.16;;;4.62;92.92
21760;BME280;11041;50.854;20.580;2022-11-15T08:10:45;98823.72;;;4.59;93.93
21760;BME280;11041;50.854;20.580;2022-11-15T08:13:12;98835.13;;;4.66;93.44
21760;BME280;11041;50.854;20.580;2022-11-15T08:15:39;98832.97;;;4.68;93.09
21760;BME280;11041;50.854;20.580;2022-11-15T08:18:11;98826.16;;;4.70;93.68
21760;BME280;11041;50.854;20.580;2022-11-15T08:20:40;98832.94;;;4.73;92.90
21760;BME280;11041;50.854;20.580;2022-11-15T08:23:08;98825.88;;;4.72;92.76
21760;BME280;11041;50.854;20.580;2022-11-15T08:25:36;98819.63;;;4.77;92.68
21760;BME280;11041;50.854;20.580;2022-11-15T08:28:06;98824.50;;;4.80;93.24
21760;BME280;11041;50.854;20.580;2022-11-15T08:30:42;98818.50;;;4.83;93.13
21760;BME280;11041;50.854;20.580;2022-11-15T08:33:13;98817.13;;;4.85;92.23
21760;BME280;11041;50.854;20.580;2022-11-15T08:35:42;98798.09;;;4.80;92.35
21760;BME280;11041;50.854;20.580;2022-11-15T08:38:10;98811.16;;;4.88;92.76
21760;BME280;11041;50.854;20.580;2022-11-15T08:40:37;98802.69;;;4.90;92.64
21760;BME280;11041;50.854;20.580;2022-11-15T08:43:04;98800.50;;;4.92;93.07
21760;BME280;11041;50.854;20.580;2022-11-15T08:45:33;98804.56;;;5.00;93.46
21760;BME280;11041;50.854;20.580;2022-11-15T08:48:02;98801.84;;;5.00;93.20
21760;BME280;11041;50.854;20.580;2022-11-15T08:50:29;98801.28;;;5.08;93.12
21760;BME280;11041;50.854;20.580;2022-11-15T08:52:55;98797.19;;;5.10;93.01
21760;BME280;11041;50.854;20.580;2022-11-15T08:55:22;98801.25;;;5.18;92.91
21760;BME280;11041;50.854;20.580;2022-11-15T08:57:48;98803.66;;;5.25;93.23
21760;BME280;11041;50.854;20.580;2022-11-15T09:00:16;98794.13;;;5.27;93.45
21760;BME280;11041;50.854;20.580;2022-11-15T09:02:42;98796.56;;;5.34;93.14
21760;BME280;11041;50.854;20.580;2022-11-15T09:05:09;98804.94;;;5.43;92.53
21760;BME280;11041;50.854;20.580;2022-11-15T09:07:36;98804.38;;;5.46;92.34
21760;BME280;11041;50.854;20.580;2022-11-15T09:10:03;98796.53;;;5.39;91.79
21760;BME280;11041;50.854;20.580;2022-11-15T09:12:29;98795.16;;;5.42;92.64
21760;BME280;11041;50.854;20.580;2022-11-15T09:14:56;98794.03;;;5.43;92.90
21760;BME280;11041;50.854;20.580;2022-11-15T09:17:22;98797.00;;;5.51;92.64
21760;BME280;11041;50.854;20.580;2022-11-15T09:19:49;98779.28;;;5.54;93.23
21760;BME280;11041;50.854;20.580;2022-11-15T09:22:15;98772.66;;;5.65;93.05
21760;BME280;11041;50.854;20.580;2022-11-15T09:24:42;98779.69;;;5.71;92.79
21760;BME280;11041;50.854;20.580;2022-11-15T09:27:08;98768.75;;;5.76;92.74
21760;BME280;11041;50.854;20.580;2022-11-15T09:29:35;98776.06;;;5.86;93.24
21760;BME280;11041;50.854;20.580;2022-11-15T09:32:02;98765.94;;;5.97;92.27
21760;BME280;11041;50.854;20.580;2022-11-15T09:34:29;98758.50;;;6.03;91.70
21760;BME280;11041;50.854;20.580;2022-11-15T09:36:55;98757.41;;;6.04;91.81
21760;BME280;11041;50.854;20.580;2022-11-15T09:39:22;98756.03;;;6.06;90.45
21760;BME280;11041;50.854;20.580;2022-11-15T09:45:37;98754.34;;;6.10;89.31
21760;BME280;11041;50.854;20.580;2022-11-15T09:48:18;98734.50;;;6.05;89.88
21760;BME280;11041;50.854;20.580;2022-11-15T09:50:52;98728.72;;;6.11;89.21
21760;BME280;11041;50.854;20.580;2022-11-15T09:56:30;98727.22;;;5.95;89.85
21760;BME280;11041;50.854;20.580;2022-11-15T10:05:16;98723.88;;;6.03;90.71
21760;BME280;11041;50.854;20.580;2022-11-15T10:08:34;98719.75;;;6.06;91.06
21760;BME280;11041;50.854;20.580;2022-11-15T10:11:19;98701.50;;;6.01;91.76
21760;BME280;11041;50.854;20.580;2022-11-15T10:13:50;98718.84;;;6.15;91.82
21760;BME280;11041;50.854;20.580;2022-11-15T10:22:52;98704.97;;;6.41;90.39
21760;BME280;11041;50.854;20.580;2022-11-15T10:25:30;98694.50;;;6.48;89.25
21760;BME280;11041;50.854;20.580;2022-11-15T10:30:58;98694.84;;;6.42;90.24
21760;BME280;11041;50.854;20.580;2022-11-15T10:33:34;98685.84;;;6.41;90.85
21760;BME280;11041;50.854;20.580;2022-11-15T10:36:23;98680.34;;;6.46;91.42
21760;BME280;11041;50.854;20.580;2022-11-15T10:38:55;98675.28;;;6.58;91.54
21760;BME280;11041;50.854;20.580;2022-11-15T10:41:30;98673.31;;;6.64;91.59
21760;BME280;11041;50.854;20.580;2022-11-15T10:44:31;98676.66;;;6.80;91.22
21760;BME280;11041;50.854;20.580;2022-11-15T10:49:28;98662.66;;;6.87;90.26
21760;BME280;11041;50.854;20.580;2022-11-15T10:54:58;98654.84;;;6.99;88.95
21760;BME280;11041;50.854;20.580;2022-11-15T10:57:49;98646.94;;;6.97;89.02
21760;BME280;11041;50.854;20.580;2022-11-15T11:05:39;98649.69;;;7.16;88.39
21760;BME280;11041;50.854;20.580;2022-11-15T11:10:38;98635.50;;;7.14;88.63
21760;BME280;11041;50.854;20.580;2022-11-15T11:27:36;98614.50;;;7.29;88.76
21760;BME280;11041;50.854;20.580;2022-11-15T11:51:02;98568.44;;;7.41;89.56
21760;BME280;11041;50.854;20.580;2022-11-15T11:56:41;98568.16;;;7.56;89.61
21760;BME280;11041;50.854;20.580;2022-11-15T11:59:31;98569.66;;;7.62;89.47
21760;BME280;11041;50.854;20.580;2022-11-15T12:02:38;98567.34;;;7.69;89.54
21760;BME280;11041;50.854;20.580;2022-11-15T12:05:33;98563.53;;;7.71;89.26
21760;BME280;11041;50.854;20.580;2022-11-15T12:14:11;98554.75;;;7.87;88.72
21760;BME280;11041;50.854;20.580;2022-11-15T12:16:42;98545.63;;;7.92;88.67
21760;BME280;11041;50.854;20.580;2022-11-15T12:19:08;98535.50;;;7.93;88.64
21760;BME280;11041;50.854;20.580;2022-11-15T12:24:57;98542.28;;;8.09;88.58
21760;BME280;11041;50.854;20.580;2022-11-15T12:27:40;98548.69;;;8.18;88.16
21760;BME280;11041;50.854;20.580;2022-11-15T12:30:14;98530.63;;;8.17;87.70
21760;BME280;11041;50.854;20.580;2022-11-15T12:33:01;98534.38;;;8.21;87.34
21760;BME280;11041;50.854;20.580;2022-11-15T12:35:37;98539.47;;;8.28;87.31
21760;BME280;11041;50.854;20.580;2022-11-15T12:38:51;98529.31;;;8.28;86.91
21760;BME280;11041;50.854;20.580;2022-11-15T12:41:17;98510.16;;;8.28;86.79
21760;BME280;11041;50.854;20.580;2022-11-15T12:43:47;98520.69;;;8.35;87.04
21760;BME280;11041;50.854;20.580;2022-11-15T13:03:24;98518.72;;;8.63;86.64
21760;BME280;11041;50.854;20.580;2022-11-15T13:06:00;98513.56;;;8.62;86.40
21760;BME280;11041;50.854;20.580;2022-11-15T13:08:40;98506.78;;;8.59;86.51
21760;BME280;11041;50.854;20.580;2022-11-15T13:11:46;98510.22;;;8.65;86.54
21760;BME280;11041;50.854;20.580;2022-11-15T13:14:46;98504.56;;;8.61;86.65
21760;BME280;11041;50.854;20.580;2022-11-15T13:17:29;98492.59;;;8.57;86.54
21760;BME280;11041;50.854;20.580;2022-11-15T13:23:13;98494.69;;;8.60;86.70
21760;BME280;11041;50.854;20.580;2022-11-15T13:28:44;98480.13;;;8.51;86.96
21760;BME280;11041;50.854;20.580;2022-11-15T13:31:42;98492.09;;;8.55;86.96
21760;BME280;11041;50.854;20.580;2022-11-15T13:34:33;98485.28;;;8.52;87.00
21760;BME280;11041;50.854;20.580;2022-11-15T13:37:12;98488.44;;;8.46;87.16
21760;BME280;11041;50.854;20.580;2022-11-15T13:39:50;98476.28;;;8.38;87.12
21760;BME280;11041;50.854;20.580;2022-11-15T13:42:19;98479.00;;;8.38;87.53
21760;BME280;11041;50.854;20.580;2022-11-15T13:45:11;98469.59;;;8.30;87.43
21760;BME280;11041;50.854;20.580;2022-11-15T13:47:38;98474.06;;;8.26;87.42
21760;BME280;11041;50.854;20.580;2022-11-15T13:50:06;98477.41;;;8.23;87.58
21760;BME280;11041;50.854;20.580;2022-11-15T13:52:37;98477.53;;;8.18;87.71
21760;BME280;11041;50.854;20.580;2022-11-15T13:55:23;98467.91;;;8.07;87.72
21760;BME280;11041;50.854;20.580;2022-11-15T13:58:02;98469.63;;;8.03;88.00
21760;BME280;11041;50.854;20.580;2022-11-15T14:00:41;98469.31;;;7.90;88.18
21760;BME280;11041;50.854;20.580;2022-11-15T14:06:11;98460.53;;;7.80;88.47
21760;BME280;11041;50.854;20.580;2022-11-15T14:08:59;98467.19;;;7.74;88.94
21760;BME280;11041;50.854;20.580;2022-11-15T14:11:27;98467.81;;;7.71;89.12
21760;BME280;11041;50.854;20.580;2022-11-15T14:22:24;98447.34;;;7.54;89.93
21760;BME280;11041;50.854;20.580;2022-11-15T14:25:19;98444.47;;;7.45;90.11
21760;BME280;11041;50.854;20.580;2022-11-15T14:30:46;98433.66;;;7.40;89.92
21760;BME280;11041;50.854;20.580;2022-11-15T14:33:38;98435.38;;;7.36;89.88
21760;BME280;11041;50.854;20.580;2022-11-15T14:36:18;98433.94;;;7.25;89.83
21760;BME280;11041;50.854;20.580;2022-11-15T14:38:47;98436.16;;;7.23;89.82
21760;BME280;11041;50.854;20.580;2022-11-15T14:41:26;98431.91;;;7.17;90.04
21760;BME280;11041;50.854;20.580;2022-11-15T14:43:53;98432.28;;;7.10;89.60
21760;BME280;11041;50.854;20.580;2022-11-15T14:46:19;98423.97;;;7.01;90.18
21760;BME280;11041;50.854;20.580;2022-11-15T14:48:46;98430.03;;;6.98;90.16
21760;BME280;11041;50.854;20.580;2022-11-15T14:51:16;98430.41;;;6.92;90.77
21760;BME280;11041;50.854;20.580;2022-11-15T14:53:45;98427.47;;;6.88;91.18
21760;BME280;11041;50.854;20.580;2022-11-15T14:56:12;98427.34;;;6.79;91.62
21760;BME280;11041;50.854;20.580;2022-11-15T14:58:40;98422.25;;;6.73;91.85
21760;BME280;11041;50.854;20.580;2022-11-15T15:01:26;98429.34;;;6.74;92.04
21760;BME280;11041;50.854;20.580;2022-11-15T15:03:57;98428.53;;;6.73;92.29
21760;BME280;11041;50.854;20.580;2022-11-15T15:06:38;98413.63;;;6.66;92.41
21760;BME280;11041;50.854;20.580;2022-11-15T15:09:06;98406.84;;;6.63;92.94
21760;BME280;11041;50.854;20.580;2022-11-15T15:11:39;98412.03;;;6.65;92.68
21760;BME280;11041;50.854;20.580;2022-11-15T15:14:17;98411.22;;;6.64;93.13
21760;BME280;11041;50.854;20.580;2022-11-15T15:16:54;98389.75;;;6.57;92.94
21760;BME280;11041;50.854;20.580;2022-11-15T15:22:05;98378.31;;;6.55;92.40
21760;BME280;11041;50.854;20.580;2022-11-15T15:24:39;98390.84;;;6.56;92.29
21760;BME280;11041;50.854;20.580;2022-11-15T15:27:14;98383.84;;;6.50;92.39
21760;BME280;11041;50.854;20.580;2022-11-15T15:29:47;98395.88;;;6.49;92.58
21760;BME280;11041;50.854;20.580;2022-11-15T15:32:23;98382.91;;;6.41;91.78
21760;BME280;11041;50.854;20.580;2022-11-15T15:35:00;98382.38;;;6.39;92.35
21760;BME280;11041;50.854;20.580;2022-11-15T15:37:33;98383.00;;;6.36;91.87
21760;BME280;11041;50.854;20.580;2022-11-15T15:40:22;98379.81;;;6.29;92.23
21760;BME280;11041;50.854;20.580;2022-11-15T15:42:58;98383.44;;;6.24;92.15
21760;BME280;11041;50.854;20.580;2022-11-15T15:45:32;98373.78;;;6.13;91.99
21760;BME280;11041;50.854;20.580;2022-11-15T15:48:01;98370.75;;;6.14;92.43
21760;BME280;11041;50.854;20.580;2022-11-15T15:50:37;98368.63;;;6.11;92.00
21760;BME280;11041;50.854;20.580;2022-11-15T15:53:06;98366.47;;;6.08;92.06
21760;BME280;11041;50.854;20.580;2022-11-15T15:55:34;98371.44;;;6.06;92.70
21760;BME280;11041;50.854;20.580;2022-11-15T15:58:00;98359.47;;;6.02;92.25